createdAt,value
2023-01-28T05:38:04.621Z,100443.80
2023-01-28T05:40:32.109Z,100444.96
2023-01-28T05:42:59.561Z,100447.60
2023-01-28T05:45:40.712Z,100453.01
2023-01-28T05:48:28.847Z,100450.39
2023-01-28T05:51:27.976Z,100444.36
2023-01-28T05:54:00.146Z,100439.39
2023-01-28T05:56:26.815Z,100441.29
2023-01-28T05:58:53.320Z,100441.21
2023-01-28T06:01:21.016Z,100443.94
2023-01-28T06:03:53.218Z,100450.76
2023-01-28T06:06:20.072Z,100452.04
2023-01-28T06:14:45.120Z,100446.98
2023-01-28T06:17:32.856Z,100443.52
2023-01-28T06:20:08.473Z,100442.48
2023-01-28T06:22:38.519Z,100446.26
2023-01-28T06:25:07.083Z,100448.13
2023-01-28T06:27:35.716Z,100444.73
2023-01-28T06:30:04.336Z,100444.38
2023-01-28T06:32:33.904Z,100447.75
2023-01-28T06:35:01.873Z,100450.83
2023-01-28T06:37:30.735Z,100452.44
2023-01-28T06:39:58.948Z,100453.53
2023-01-28T06:42:26.998Z,100461.51
2023-01-28T06:44:55.135Z,100466.56
2023-01-28T06:47:23.144Z,100469.62
2023-01-28T06:49:51.066Z,100462.83
2023-01-28T06:52:19.027Z,100460.13
2023-01-28T06:54:47.304Z,100462.99
2023-01-28T06:57:15.162Z,100462.50
2023-01-28T06:59:43.203Z,100461.81
2023-01-28T07:02:11.648Z,100469.10
2023-01-28T07:04:39.601Z,100470.05
2023-01-28T07:07:07.926Z,100468.06
2023-01-28T07:09:36.646Z,100472.13
2023-01-28T07:12:05.416Z,100476.55
2023-01-28T07:14:33.720Z,100480.25
2023-01-28T07:17:02.061Z,100477.33
2023-01-28T07:19:30.361Z,100475.45
2023-01-28T07:22:00.914Z,100476.65
2023-01-28T07:24:29.855Z,100466.84
2023-01-28T07:26:57.800Z,100465.23
2023-01-28T07:29:26.782Z,100464.20
2023-01-28T07:31:54.751Z,100465.45
2023-01-28T07:34:22.645Z,100466.38
2023-01-28T07:36:50.551Z,100463.73
2023-01-28T07:39:18.862Z,100458.11
2023-01-28T07:41:47.457Z,100459.55
2023-01-28T07:44:33.794Z,100458.77
2023-01-28T07:47:02.505Z,100458.70
2023-01-28T07:49:30.541Z,100461.55
2023-01-28T07:52:01.708Z,100465.09
2023-01-28T07:54:29.941Z,100469.05
2023-01-28T07:56:57.811Z,100475.47
2023-01-28T07:59:26.306Z,100482.13
2023-01-28T08:01:55.180Z,100485.65
2023-01-28T08:04:23.504Z,100489.50
2023-01-28T08:06:52.347Z,100496.71
2023-01-28T08:09:20.368Z,100494.53
2023-01-28T08:11:49.331Z,100499.88
2023-01-28T08:14:17.382Z,100501.50
2023-01-28T08:16:45.324Z,100495.92
2023-01-28T08:19:13.229Z,100496.15
2023-01-28T10:13:28.221Z,100397.98
2023-01-28T10:16:10.646Z,100394.73
2023-01-28T10:19:00.538Z,100399.76
2023-01-28T10:21:40.928Z,100396.09
2023-01-28T10:24:18.333Z,100394.52
2023-01-28T10:26:45.217Z,100389.00
2023-01-28T10:29:32.767Z,100391.83
2023-01-28T10:32:20.795Z,100389.48
2023-01-28T10:34:47.784Z,100389.09
2023-01-28T10:37:14.633Z,100392.45
2023-01-28T10:39:41.477Z,100385.68
2023-01-28T10:42:35.457Z,100382.69
2023-01-28T10:45:14.976Z,100379.05
2023-01-28T10:47:45.322Z,100375.30
2023-01-28T10:50:22.792Z,100367.98
2023-01-28T10:53:00.742Z,100364.48
2023-01-28T10:55:34.215Z,100364.43
2023-01-28T10:58:04.874Z,100361.11
2023-01-28T11:00:35.531Z,100361.08
2023-01-28T11:03:04.301Z,100359.77
2023-01-28T11:05:32.553Z,100356.13
2023-01-28T11:08:12.859Z,100348.95
2023-01-28T11:10:40.222Z,100341.02
2023-01-28T11:13:22.397Z,100335.11
2023-01-28T11:15:53.838Z,100339.50
2023-01-28T11:18:25.057Z,100337.95
